Accueil
METAR-TAF:

METAR-TAF

Aéroports :

Visalia Municipal Airport

Visalia, Californie, États-Unis

latitude: 36-19N, longitude: 119-24W, altitude: 89 m

Observation

Le bulletin a été fait il y a 54 minutes, à 14:56 UTC
Vent 3 kt de sud-ouest
Température 9°C
Humidité 81%
Pression 1017 hPa
Visibilité: 4.8 km
Ciel clair
brume sèche

METAR: KVIS 141456Z AUTO 22003KT 3SM HZ CLR 09/06 A3004 RMK AO2 SLP182 T00940061 53019

Heure: 07:50 (15:50 UTC)

Prévision

Le bulletin a été fait il y a 4 heures et 30 minutes, à 11:20 UTC
Prévision valable du 14 à 12 UTC au 15 à 12 UTC
Vent 4 kt de direction variable
Visibilité: 8.0 km
Nuages fragmentés à une hauteur de 20000 ft
brume sèche

TAF: KVIS 141120Z 1412/1512 VRB04KT 5SM HZ BKN200

Observations et prévisions météorologiques de plus de 4000 aéroports (messages METAR et TAF).

Les stations disponibles sont représentées par des disques jaunes et rouges sur la carte.

Passer la souris dessus pour voir le nom de la station.

Cliquer dessus pour voir les observations et prévisions météorologiques.

Pour changer de carte: cliquez sur les boutons verts avec une croix noire pour zoomer, sur le bouton vert avec un tiret pour effectuer un zoom arrière, ou sur les flèches vertes pour les cartes adjacentes.


METAR-TAF: